sensor_id;sensor_type;location;lat;lon;timestamp;temperature;humidity
17565;DHT22;62994;52.126;5.596;2022-10-16T00:01:06;13.80;99.90
17565;DHT22;62994;52.126;5.596;2022-10-16T00:03:33;13.90;99.90
17565;DHT22;62994;52.126;5.596;2022-10-16T00:06:01;13.80;99.90
17565;DHT22;62994;52.126;5.596;2022-10-16T00:08:28;13.80;99.90
17565;DHT22;62994;52.126;5.596;2022-10-16T00:10:59;13.80;99.90
17565;DHT22;62994;52.126;5.596;2022-10-16T00:13:28;13.80;99.90
17565;DHT22;62994;52.126;5.596;2022-10-16T00:15:56;13.80;99.90
17565;DHT22;62994;52.126;5.596;2022-10-16T00:18:23;13.70;99.90
17565;DHT22;62994;52.126;5.596;2022-10-16T00:20:50;13.80;99.90
17565;DHT22;62994;52.126;5.596;2022-10-16T00:23:17;13.90;99.90
17565;DHT22;62994;52.126;5.596;2022-10-16T00:25:45;13.90;99.90
17565;DHT22;62994;52.126;5.596;2022-10-16T00:28:20;13.90;99.90
17565;DHT22;62994;52.126;5.596;2022-10-16T00:30:48;13.90;99.90
17565;DHT22;62994;52.126;5.596;2022-10-16T00:33:15;13.90;99.90
17565;DHT22;62994;52.126;5.596;2022-10-16T00:35:42;13.80;99.90
17565;DHT22;62994;52.126;5.596;2022-10-16T00:38:09;13.80;99.90
17565;DHT22;62994;52.126;5.596;2022-10-16T00:40:36;13.80;99.90
17565;DHT22;62994;52.126;5.596;2022-10-16T00:43:04;13.80;99.90
17565;DHT22;62994;52.126;5.596;2022-10-16T00:45:34;13.80;99.90
17565;DHT22;62994;52.126;5.596;2022-10-16T00:48:03;13.80;99.90
17565;DHT22;62994;52.126;5.596;2022-10-16T00:50:31;13.80;99.90
17565;DHT22;62994;52.126;5.596;2022-10-16T00:53:00;13.80;99.90
17565;DHT22;62994;52.126;5.596;2022-10-16T00:55:27;13.80;99.90
17565;DHT22;62994;52.126;5.596;2022-10-16T00:57:56;13.90;99.90
17565;DHT22;62994;52.126;5.596;2022-10-16T01:00:25;13.90;99.90
17565;DHT22;62994;52.126;5.596;2022-10-16T01:02:53;13.90;99.90
17565;DHT22;62994;52.126;5.596;2022-10-16T01:05:23;13.90;99.90
17565;DHT22;62994;52.126;5.596;2022-10-16T01:07:57;14.00;99.90
17565;DHT22;62994;52.126;5.596;2022-10-16T01:10:29;14.10;99.90
17565;DHT22;62994;52.126;5.596;2022-10-16T01:13:02;14.10;99.90
17565;DHT22;62994;52.126;5.596;2022-10-16T01:15:32;14.20;99.90
17565;DHT22;62994;52.126;5.596;2022-10-16T01:18:03;14.10;99.90
17565;DHT22;62994;52.126;5.596;2022-10-16T01:20:37;14.10;99.90
17565;DHT22;62994;52.126;5.596;2022-10-16T01:23:21;14.20;99.90
17565;DHT22;62994;52.126;5.596;2022-10-16T01:26:27;14.30;99.90
17565;DHT22;62994;52.126;5.596;2022-10-16T01:29:03;14.40;99.90
17565;DHT22;62994;52.126;5.596;2022-10-16T01:31:36;14.30;99.90
17565;DHT22;62994;52.126;5.596;2022-10-16T01:34:06;14.30;99.90
17565;DHT22;62994;52.126;5.596;2022-10-16T01:36:38;14.20;99.90
17565;DHT22;62994;52.126;5.596;2022-10-16T01:39:09;14.30;99.90
17565;DHT22;62994;52.126;5.596;2022-10-16T01:41:40;14.40;99.90
17565;DHT22;62994;52.126;5.596;2022-10-16T01:44:13;14.30;99.90
17565;DHT22;62994;52.126;5.596;2022-10-16T01:46:43;14.40;99.90
17565;DHT22;62994;52.126;5.596;2022-10-16T01:49:12;14.60;99.90
17565;DHT22;62994;52.126;5.596;2022-10-16T01:51:40;14.40;99.90
17565;DHT22;62994;52.126;5.596;2022-10-16T01:54:10;14.50;99.90
17565;DHT22;62994;52.126;5.596;2022-10-16T01:56:39;14.40;99.90
17565;DHT22;62994;52.126;5.596;2022-10-16T01:59:12;14.40;99.90
17565;DHT22;62994;52.126;5.596;2022-10-16T02:01:45;14.20;99.90
17565;DHT22;62994;52.126;5.596;2022-10-16T02:04:28;14.30;99.90
17565;DHT22;62994;52.126;5.596;2022-10-16T02:06:55;14.40;99.90
17565;DHT22;62994;52.126;5.596;2022-10-16T02:09:23;14.50;99.90
17565;DHT22;62994;52.126;5.596;2022-10-16T02:11:50;14.50;99.90
17565;DHT22;62994;52.126;5.596;2022-10-16T02:14:19;14.50;99.90
17565;DHT22;62994;52.126;5.596;2022-10-16T02:16:48;14.50;99.90
17565;DHT22;62994;52.126;5.596;2022-10-16T02:19:17;14.40;99.90
17565;DHT22;62994;52.126;5.596;2022-10-16T02:21:50;14.60;99.90
17565;DHT22;62994;52.126;5.596;2022-10-16T02:24:23;14.60;99.90
17565;DHT22;62994;52.126;5.596;2022-10-16T02:27:00;14.70;99.90
17565;DHT22;62994;52.126;5.596;2022-10-16T02:29:28;14.70;99.90
17565;DHT22;62994;52.126;5.596;2022-10-16T02:32:00;14.70;99.90
17565;DHT22;62994;52.126;5.596;2022-10-16T02:34:30;14.50;99.90
17565;DHT22;62994;52.126;5.596;2022-10-16T02:36:59;14.60;99.90
17565;DHT22;62994;52.126;5.596;2022-10-16T02:39:27;14.60;99.90
17565;DHT22;62994;52.126;5.596;2022-10-16T02:41:55;14.60;99.90
17565;DHT22;62994;52.126;5.596;2022-10-16T02:44:22;14.50;99.90
17565;DHT22;62994;52.126;5.596;2022-10-16T02:46:49;14.50;99.90
17565;DHT22;62994;52.126;5.596;2022-10-16T02:49:17;14.50;99.90
17565;DHT22;62994;52.126;5.596;2022-10-16T02:51:44;14.50;99.90
17565;DHT22;62994;52.126;5.596;2022-10-16T02:54:11;14.40;99.90
17565;DHT22;62994;52.126;5.596;2022-10-16T02:56:38;14.30;99.90
17565;DHT22;62994;52.126;5.596;2022-10-16T02:59:05;14.40;99.90
17565;DHT22;62994;52.126;5.596;2022-10-16T03:01:34;14.30;99.90
17565;DHT22;62994;52.126;5.596;2022-10-16T03:04:00;14.40;99.90
17565;DHT22;62994;52.126;5.596;2022-10-16T03:06:29;14.50;99.90
17565;DHT22;62994;52.126;5.596;2022-10-16T03:08:56;14.30;99.90
17565;DHT22;62994;52.126;5.596;2022-10-16T03:11:22;14.20;99.90
17565;DHT22;62994;52.126;5.596;2022-10-16T03:13:49;14.20;99.90
17565;DHT22;62994;52.126;5.596;2022-10-16T03:16:17;14.20;99.90
17565;DHT22;62994;52.126;5.596;2022-10-16T03:18:48;14.20;99.90
17565;DHT22;62994;52.126;5.596;2022-10-16T03:21:16;14.20;99.90
17565;DHT22;62994;52.126;5.596;2022-10-16T03:23:44;14.20;99.90
17565;DHT22;62994;52.126;5.596;2022-10-16T03:26:11;14.10;99.90
17565;DHT22;62994;52.126;5.596;2022-10-16T03:28:38;14.20;99.90
17565;DHT22;62994;52.126;5.596;2022-10-16T03:31:05;14.20;99.90
17565;DHT22;62994;52.126;5.596;2022-10-16T03:33:32;14.20;99.90
17565;DHT22;62994;52.126;5.596;2022-10-16T03:35:58;14.10;99.90
17565;DHT22;62994;52.126;5.596;2022-10-16T03:38:25;14.20;99.90
17565;DHT22;62994;52.126;5.596;2022-10-16T03:40:54;14.10;99.90
17565;DHT22;62994;52.126;5.596;2022-10-16T03:43:21;14.10;99.90
17565;DHT22;62994;52.126;5.596;2022-10-16T03:45:49;14.20;99.90
17565;DHT22;62994;52.126;5.596;2022-10-16T03:48:16;14.20;99.90
17565;DHT22;62994;52.126;5.596;2022-10-16T03:50:43;14.20;99.90
17565;DHT22;62994;52.126;5.596;2022-10-16T03:53:10;14.30;99.90
17565;DHT22;62994;52.126;5.596;2022-10-16T03:55:37;14.30;99.90
17565;DHT22;62994;52.126;5.596;2022-10-16T03:58:05;14.30;99.90
17565;DHT22;62994;52.126;5.596;2022-10-16T04:00:32;14.20;99.90
17565;DHT22;62994;52.126;5.596;2022-10-16T04:02:59;14.10;99.90
17565;DHT22;62994;52.126;5.596;2022-10-16T04:05:27;14.10;99.90
17565;DHT22;62994;52.126;5.596;2022-10-16T04:07:53;14.10;99.90
17565;DHT22;62994;52.126;5.596;2022-10-16T04:10:20;14.00;99.90
17565;DHT22;62994;52.126;5.596;2022-10-16T04:12:47;14.10;99.90
17565;DHT22;62994;52.126;5.596;2022-10-16T04:15:16;14.00;99.90
17565;DHT22;62994;52.126;5.596;2022-10-16T04:17:43;14.10;99.90
17565;DHT22;62994;52.126;5.596;2022-10-16T04:20:09;14.00;99.90
17565;DHT22;62994;52.126;5.596;2022-10-16T04:22:36;13.90;99.90
17565;DHT22;62994;52.126;5.596;2022-10-16T04:25:04;13.80;99.90
17565;DHT22;62994;52.126;5.596;2022-10-16T04:27:31;13.80;99.90
17565;DHT22;62994;52.126;5.596;2022-10-16T04:29:58;13.90;99.90
17565;DHT22;62994;52.126;5.596;2022-10-16T04:32:26;13.90;99.90
17565;DHT22;62994;52.126;5.596;2022-10-16T04:34:53;13.90;99.90
17565;DHT22;62994;52.126;5.596;2022-10-16T04:37:23;13.80;99.90
17565;DHT22;62994;52.126;5.596;2022-10-16T04:39:50;13.80;99.90
17565;DHT22;62994;52.126;5.596;2022-10-16T04:42:17;13.70;99.90
17565;DHT22;62994;52.126;5.596;2022-10-16T04:44:44;13.70;99.90
17565;DHT22;62994;52.126;5.596;2022-10-16T04:47:11;13.70;99.90
17565;DHT22;62994;52.126;5.596;2022-10-16T04:49:39;13.70;99.90
17565;DHT22;62994;52.126;5.596;2022-10-16T04:52:06;13.60;99.90
17565;DHT22;62994;52.126;5.596;2022-10-16T04:54:34;13.70;99.90
17565;DHT22;62994;52.126;5.596;2022-10-16T04:57:01;13.70;99.90
17565;DHT22;62994;52.126;5.596;2022-10-16T04:59:28;13.60;99.90
17565;DHT22;62994;52.126;5.596;2022-10-16T05:01:55;13.60;99.90
17565;DHT22;62994;52.126;5.596;2022-10-16T05:04:22;13.60;99.90
17565;DHT22;62994;52.126;5.596;2022-10-16T05:06:50;13.60;99.90
17565;DHT22;62994;52.126;5.596;2022-10-16T05:09:17;13.60;99.90
17565;DHT22;62994;52.126;5.596;2022-10-16T05:11:44;13.50;99.90
17565;DHT22;62994;52.126;5.596;2022-10-16T05:14:11;13.60;99.90
17565;DHT22;62994;52.126;5.596;2022-10-16T05:16:38;13.70;99.90
17565;DHT22;62994;52.126;5.596;2022-10-16T05:19:04;13.70;99.90
17565;DHT22;62994;52.126;5.596;2022-10-16T05:21:31;13.70;99.90
17565;DHT22;62994;52.126;5.596;2022-10-16T05:24:00;13.70;99.90
17565;DHT22;62994;52.126;5.596;2022-10-16T05:26:26;13.60;99.90
17565;DHT22;62994;52.126;5.596;2022-10-16T05:28:53;13.60;99.90
17565;DHT22;62994;52.126;5.596;2022-10-16T05:31:20;13.60;99.90
17565;DHT22;62994;52.126;5.596;2022-10-16T05:33:50;13.40;99.90
17565;DHT22;62994;52.126;5.596;2022-10-16T05:36:17;13.40;99.90
17565;DHT22;62994;52.126;5.596;2022-10-16T05:38:44;13.30;99.90
17565;DHT22;62994;52.126;5.596;2022-10-16T05:41:12;13.20;99.90
17565;DHT22;62994;52.126;5.596;2022-10-16T05:43:39;13.20;99.90
17565;DHT22;62994;52.126;5.596;2022-10-16T05:46:06;13.30;99.90
17565;DHT22;62994;52.126;5.596;2022-10-16T05:48:33;13.30;99.90
17565;DHT22;62994;52.126;5.596;2022-10-16T05:51:03;13.20;99.90
17565;DHT22;62994;52.126;5.596;2022-10-16T05:53:32;13.30;99.90
17565;DHT22;62994;52.126;5.596;2022-10-16T05:56:00;13.20;99.90
17565;DHT22;62994;52.126;5.596;2022-10-16T05:58:31;13.20;99.90
17565;DHT22;62994;52.126;5.596;2022-10-16T06:01:00;13.30;99.90
17565;DHT22;62994;52.126;5.596;2022-10-16T06:03:27;13.40;99.90
17565;DHT22;62994;52.126;5.596;2022-10-16T06:05:54;13.50;99.90
17565;DHT22;62994;52.126;5.596;2022-10-16T06:08:22;13.50;99.90
17565;DHT22;62994;52.126;5.596;2022-10-16T06:11:00;13.50;99.90
17565;DHT22;62994;52.126;5.596;2022-10-16T06:13:28;13.60;99.90
17565;DHT22;62994;52.126;5.596;2022-10-16T06:15:57;13.80;99.90
17565;DHT22;62994;52.126;5.596;2022-10-16T06:18:24;13.80;99.90
17565;DHT22;62994;52.126;5.596;2022-10-16T06:20:51;13.90;99.90
17565;DHT22;62994;52.126;5.596;2022-10-16T06:23:18;13.80;99.90
17565;DHT22;62994;52.126;5.596;2022-10-16T06:25:45;13.80;99.90
17565;DHT22;62994;52.126;5.596;2022-10-16T06:28:13;13.90;99.90
17565;DHT22;62994;52.126;5.596;2022-10-16T06:30:42;14.00;99.90
17565;DHT22;62994;52.126;5.596;2022-10-16T06:33:09;14.00;99.90
17565;DHT22;62994;52.126;5.596;2022-10-16T06:35:36;14.00;99.90
17565;DHT22;62994;52.126;5.596;2022-10-16T06:38:03;14.10;99.90
17565;DHT22;62994;52.126;5.596;2022-10-16T06:40:30;14.00;99.90
17565;DHT22;62994;52.126;5.596;2022-10-16T06:42:57;13.90;99.90
17565;DHT22;62994;52.126;5.596;2022-10-16T06:45:24;13.90;99.90
17565;DHT22;62994;52.126;5.596;2022-10-16T06:47:52;14.00;99.90
17565;DHT22;62994;52.126;5.596;2022-10-16T06:50:19;14.00;99.90
17565;DHT22;62994;52.126;5.596;2022-10-16T06:52:46;14.20;99.90
17565;DHT22;62994;52.126;5.596;2022-10-16T06:55:13;14.20;99.90
17565;DHT22;62994;52.126;5.596;2022-10-16T06:57:40;14.10;99.90
17565;DHT22;62994;52.126;5.596;2022-10-16T07:00:08;14.10;99.90
17565;DHT22;62994;52.126;5.596;2022-10-16T07:02:35;14.20;99.90
17565;DHT22;62994;52.126;5.596;2022-10-16T07:05:04;14.30;99.90
17565;DHT22;62994;52.126;5.596;2022-10-16T07:07:31;14.30;99.90
17565;DHT22;62994;52.126;5.596;2022-10-16T07:09:58;14.30;99.90
17565;DHT22;62994;52.126;5.596;2022-10-16T07:12:25;14.20;99.90
17565;DHT22;62994;52.126;5.596;2022-10-16T07:14:52;14.10;99.90
17565;DHT22;62994;52.126;5.596;2022-10-16T07:17:20;14.20;99.90
17565;DHT22;62994;52.126;5.596;2022-10-16T07:19:47;14.20;99.90
17565;DHT22;62994;52.126;5.596;2022-10-16T07:22:15;14.30;99.90
17565;DHT22;62994;52.126;5.596;2022-10-16T07:24:42;14.40;99.90
17565;DHT22;62994;52.126;5.596;2022-10-16T07:27:10;14.40;99.90
17565;DHT22;62994;52.126;5.596;2022-10-16T07:29:37;14.50;99.90
17565;DHT22;62994;52.126;5.596;2022-10-16T07:32:04;14.50;99.90
17565;DHT22;62994;52.126;5.596;2022-10-16T07:34:31;14.50;99.90
17565;DHT22;62994;52.126;5.596;2022-10-16T07:36:58;14.50;99.90
17565;DHT22;62994;52.126;5.596;2022-10-16T07:39:26;14.50;99.90
17565;DHT22;62994;52.126;5.596;2022-10-16T07:41:53;14.40;99.90
17565;DHT22;62994;52.126;5.596;2022-10-16T07:44:20;14.50;99.90
17565;DHT22;62994;52.126;5.596;2022-10-16T07:46:46;14.60;99.90
17565;DHT22;62994;52.126;5.596;2022-10-16T07:49:13;14.60;99.90
17565;DHT22;62994;52.126;5.596;2022-10-16T07:51:40;14.70;99.90
17565;DHT22;62994;52.126;5.596;2022-10-16T07:54:11;14.70;99.90
17565;DHT22;62994;52.126;5.596;2022-10-16T07:56:39;14.80;99.90
17565;DHT22;62994;52.126;5.596;2022-10-16T07:59:09;14.80;99.90
17565;DHT22;62994;52.126;5.596;2022-10-16T08:01:36;14.90;99.90
17565;DHT22;62994;52.126;5.596;2022-10-16T08:04:03;15.00;99.90
17565;DHT22;62994;52.126;5.596;2022-10-16T08:06:35;15.00;99.90
17565;DHT22;62994;52.126;5.596;2022-10-16T08:09:02;15.10;99.90
17565;DHT22;62994;52.126;5.596;2022-10-16T08:11:29;15.20;99.90
17565;DHT22;62994;52.126;5.596;2022-10-16T08:13:58;15.20;99.90
17565;DHT22;62994;52.126;5.596;2022-10-16T08:16:25;15.00;99.90
17565;DHT22;62994;52.126;5.596;2022-10-16T08:18:52;14.90;99.90
17565;DHT22;62994;52.126;5.596;2022-10-16T08:21:21;14.90;99.90
17565;DHT22;62994;52.126;5.596;2022-10-16T08:23:48;15.00;99.90
17565;DHT22;62994;52.126;5.596;2022-10-16T08:26:15;15.10;99.90
17565;DHT22;62994;52.126;5.596;2022-10-16T08:28:42;15.20;99.90
17565;DHT22;62994;52.126;5.596;2022-10-16T08:31:12;15.20;99.90
17565;DHT22;62994;52.126;5.596;2022-10-16T08:33:45;15.20;99.90
17565;DHT22;62994;52.126;5.596;2022-10-16T08:36:14;15.40;99.90
17565;DHT22;62994;52.126;5.596;2022-10-16T08:38:41;15.60;99.90
17565;DHT22;62994;52.126;5.596;2022-10-16T08:41:29;15.50;99.90
17565;DHT22;62994;52.126;5.596;2022-10-16T08:44:24;15.60;99.90
17565;DHT22;62994;52.126;5.596;2022-10-16T08:47:02;15.60;99.90
17565;DHT22;62994;52.126;5.596;2022-10-16T08:49:32;15.90;99.90
17565;DHT22;62994;52.126;5.596;2022-10-16T08:51:59;15.90;99.90
17565;DHT22;62994;52.126;5.596;2022-10-16T08:54:29;15.90;99.90
17565;DHT22;62994;52.126;5.596;2022-10-16T08:57:14;15.90;99.90
17565;DHT22;62994;52.126;5.596;2022-10-16T08:59:43;15.80;99.90
17565;DHT22;62994;52.126;5.596;2022-10-16T09:02:24;15.90;99.90
17565;DHT22;62994;52.126;5.596;2022-10-16T09:05:11;16.00;99.90
17565;DHT22;62994;52.126;5.596;2022-10-16T09:07:49;16.10;99.90
17565;DHT22;62994;52.126;5.596;2022-10-16T09:10:29;16.20;99.90
17565;DHT22;62994;52.126;5.596;2022-10-16T09:13:08;16.20;99.90
17565;DHT22;62994;52.126;5.596;2022-10-16T09:15:40;16.20;99.90
17565;DHT22;62994;52.126;5.596;2022-10-16T09:18:14;16.20;99.90
17565;DHT22;62994;52.126;5.596;2022-10-16T09:20:49;16.30;99.90
17565;DHT22;62994;52.126;5.596;2022-10-16T09:23:18;16.40;99.90
17565;DHT22;62994;52.126;5.596;2022-10-16T09:25:47;16.50;99.90
17565;DHT22;62994;52.126;5.596;2022-10-16T09:28:15;16.50;99.90
17565;DHT22;62994;52.126;5.596;2022-10-16T09:30:42;16.60;99.90
17565;DHT22;62994;52.126;5.596;2022-10-16T09:33:12;16.60;99.90
17565;DHT22;62994;52.126;5.596;2022-10-16T09:35:41;16.60;99.90
17565;DHT22;62994;52.126;5.596;2022-10-16T09:38:20;16.60;99.90
17565;DHT22;62994;52.126;5.596;2022-10-16T09:40:47;16.80;99.90
17565;DHT22;62994;52.126;5.596;2022-10-16T09:43:21;16.80;99.90
17565;DHT22;62994;52.126;5.596;2022-10-16T09:45:57;16.80;99.90
17565;DHT22;62994;52.126;5.596;2022-10-16T09:48:28;16.80;99.90
17565;DHT22;62994;52.126;5.596;2022-10-16T09:50:59;17.00;99.90
17565;DHT22;62994;52.126;5.596;2022-10-16T09:53:38;17.10;99.90
17565;DHT22;62994;52.126;5.596;2022-10-16T09:56:05;17.10;99.90
17565;DHT22;62994;52.126;5.596;2022-10-16T09:58:32;17.10;99.90
17565;DHT22;62994;52.126;5.596;2022-10-16T10:01:00;17.10;99.90
17565;DHT22;62994;52.126;5.596;2022-10-16T10:03:35;17.20;99.90
17565;DHT22;62994;52.126;5.596;2022-10-16T10:06:07;17.20;99.90
17565;DHT22;62994;52.126;5.596;2022-10-16T10:08:41;17.20;99.90
17565;DHT22;62994;52.126;5.596;2022-10-16T10:11:08;17.20;99.90
17565;DHT22;62994;52.126;5.596;2022-10-16T10:13:35;17.20;99.90
17565;DHT22;62994;52.126;5.596;2022-10-16T10:16:02;17.30;99.90
17565;DHT22;62994;52.126;5.596;2022-10-16T10:18:29;17.50;99.90
17565;DHT22;62994;52.126;5.596;2022-10-16T10:21:00;17.60;99.90
17565;DHT22;62994;52.126;5.596;2022-10-16T10:23:28;17.70;99.90
17565;DHT22;62994;52.126;5.596;2022-10-16T10:26:01;17.70;99.90
17565;DHT22;62994;52.126;5.596;2022-10-16T10:28:48;17.90;99.90
17565;DHT22;62994;52.126;5.596;2022-10-16T10:31:31;18.00;99.90
17565;DHT22;62994;52.126;5.596;2022-10-16T10:34:08;18.20;99.90
17565;DHT22;62994;52.126;5.596;2022-10-16T10:36:40;18.30;99.90
17565;DHT22;62994;52.126;5.596;2022-10-16T10:39:11;18.20;99.90
17565;DHT22;62994;52.126;5.596;2022-10-16T10:42:09;18.20;99.90
17565;DHT22;62994;52.126;5.596;2022-10-16T10:45:11;18.00;99.90
17565;DHT22;62994;52.126;5.596;2022-10-16T10:47:48;18.00;99.90
17565;DHT22;62994;52.126;5.596;2022-10-16T10:50:24;18.00;99.90
17565;DHT22;62994;52.126;5.596;2022-10-16T10:52:59;18.10;99.90
17565;DHT22;62994;52.126;5.596;2022-10-16T10:55:38;18.30;99.90
17565;DHT22;62994;52.126;5.596;2022-10-16T10:58:23;18.40;99.90
17565;DHT22;62994;52.126;5.596;2022-10-16T11:00:59;18.50;99.90
17565;DHT22;62994;52.126;5.596;2022-10-16T11:03:40;18.50;99.90
17565;DHT22;62994;52.126;5.596;2022-10-16T11:06:12;18.70;99.90
17565;DHT22;62994;52.126;5.596;2022-10-16T11:08:47;18.90;99.90
17565;DHT22;62994;52.126;5.596;2022-10-16T11:11:18;18.90;99.90
17565;DHT22;62994;52.126;5.596;2022-10-16T11:13:52;18.90;99.90
17565;DHT22;62994;52.126;5.596;2022-10-16T11:16:23;19.00;99.90
17565;DHT22;62994;52.126;5.596;2022-10-16T11:18:58;19.10;99.90
17565;DHT22;62994;52.126;5.596;2022-10-16T11:21:30;19.00;99.90
17565;DHT22;62994;52.126;5.596;2022-10-16T11:24:08;19.40;99.90
17565;DHT22;62994;52.126;5.596;2022-10-16T11:26:41;19.70;99.90
17565;DHT22;62994;52.126;5.596;2022-10-16T11:29:15;20.20;99.90
17565;DHT22;62994;52.126;5.596;2022-10-16T11:31:47;20.60;99.90
17565;DHT22;62994;52.126;5.596;2022-10-16T11:34:20;21.10;99.90
17565;DHT22;62994;52.126;5.596;2022-10-16T11:36:53;21.60;99.90
17565;DHT22;62994;52.126;5.596;2022-10-16T11:39:25;21.80;99.90
17565;DHT22;62994;52.126;5.596;2022-10-16T11:41:54;21.90;99.90
17565;DHT22;62994;52.126;5.596;2022-10-16T11:44:36;22.00;99.90
17565;DHT22;62994;52.126;5.596;2022-10-16T11:47:12;22.30;99.90
17565;DHT22;62994;52.126;5.596;2022-10-16T11:49:43;22.60;99.90
17565;DHT22;62994;52.126;5.596;2022-10-16T11:52:16;22.90;99.90
17565;DHT22;62994;52.126;5.596;2022-10-16T11:54:50;23.20;99.90
17565;DHT22;62994;52.126;5.596;2022-10-16T11:57:22;24.00;99.90
17565;DHT22;62994;52.126;5.596;2022-10-16T11:59:54;24.90;99.90
17565;DHT22;62994;52.126;5.596;2022-10-16T12:02:40;25.60;99.90
17565;DHT22;62994;52.126;5.596;2022-10-16T12:05:21;25.90;99.90
17565;DHT22;62994;52.126;5.596;2022-10-16T12:07:56;26.10;99.90
17565;DHT22;62994;52.126;5.596;2022-10-16T12:10:30;26.10;99.90
17565;DHT22;62994;52.126;5.596;2022-10-16T12:13:03;25.80;99.90
17565;DHT22;62994;52.126;5.596;2022-10-16T12:15:32;25.60;99.90
17565;DHT22;62994;52.126;5.596;2022-10-16T12:17:59;25.40;99.90
17565;DHT22;62994;52.126;5.596;2022-10-16T12:20:28;25.50;99.90
17565;DHT22;62994;52.126;5.596;2022-10-16T12:22:59;25.60;99.90
17565;DHT22;62994;52.126;5.596;2022-10-16T12:25:30;26.00;99.90
17565;DHT22;62994;52.126;5.596;2022-10-16T12:28:00;26.30;99.90
17565;DHT22;62994;52.126;5.596;2022-10-16T12:30:29;26.80;99.90
17565;DHT22;62994;52.126;5.596;2022-10-16T12:32:58;27.30;99.90
17565;DHT22;62994;52.126;5.596;2022-10-16T12:35:28;27.80;99.90
17565;DHT22;62994;52.126;5.596;2022-10-16T12:38:06;28.10;99.90
17565;DHT22;62994;52.126;5.596;2022-10-16T12:40:35;28.10;99.90
17565;DHT22;62994;52.126;5.596;2022-10-16T12:43:26;28.30;99.90
17565;DHT22;62994;52.126;5.596;2022-10-16T12:46:06;28.70;99.90
17565;DHT22;62994;52.126;5.596;2022-10-16T12:48:47;29.00;99.90
17565;DHT22;62994;52.126;5.596;2022-10-16T12:51:24;28.70;99.90
17565;DHT22;62994;52.126;5.596;2022-10-16T12:54:01;28.10;99.90
17565;DHT22;62994;52.126;5.596;2022-10-16T12:56:39;27.70;99.90
17565;DHT22;62994;52.126;5.596;2022-10-16T12:59:17;27.70;99.90
17565;DHT22;62994;52.126;5.596;2022-10-16T13:01:56;28.10;99.90
17565;DHT22;62994;52.126;5.596;2022-10-16T13:05:05;28.60;99.90
17565;DHT22;62994;52.126;5.596;2022-10-16T13:07:51;29.30;99.90
17565;DHT22;62994;52.126;5.596;2022-10-16T13:10:25;29.80;99.90
17565;DHT22;62994;52.126;5.596;2022-10-16T13:13:13;30.50;99.90
17565;DHT22;62994;52.126;5.596;2022-10-16T13:15:56;31.20;99.90
17565;DHT22;62994;52.126;5.596;2022-10-16T13:18:29;31.70;99.90
17565;DHT22;62994;52.126;5.596;2022-10-16T13:21:11;32.20;99.90
17565;DHT22;62994;52.126;5.596;2022-10-16T13:23:48;32.40;99.90
17565;DHT22;62994;52.126;5.596;2022-10-16T13:26:24;32.20;99.90
17565;DHT22;62994;52.126;5.596;2022-10-16T13:28:59;31.90;99.90
17565;DHT22;62994;52.126;5.596;2022-10-16T13:31:26;31.50;99.90
17565;DHT22;62994;52.126;5.596;2022-10-16T13:33:57;30.50;99.90
17565;DHT22;62994;52.126;5.596;2022-10-16T13:36:28;29.70;99.90
17565;DHT22;62994;52.126;5.596;2022-10-16T13:39:10;29.00;99.90
17565;DHT22;62994;52.126;5.596;2022-10-16T13:41:38;28.50;99.90
17565;DHT22;62994;52.126;5.596;2022-10-16T13:44:15;28.00;99.90
17565;DHT22;62994;52.126;5.596;2022-10-16T13:46:45;27.60;99.90
17565;DHT22;62994;52.126;5.596;2022-10-16T13:49:14;27.20;99.90
17565;DHT22;62994;52.126;5.596;2022-10-16T13:51:41;26.70;99.90
17565;DHT22;62994;52.126;5.596;2022-10-16T13:54:09;26.30;99.90
17565;DHT22;62994;52.126;5.596;2022-10-16T13:56:39;25.90;99.90
17565;DHT22;62994;52.126;5.596;2022-10-16T13:59:23;25.70;99.90
17565;DHT22;62994;52.126;5.596;2022-10-16T14:01:53;25.40;99.90
17565;DHT22;62994;52.126;5.596;2022-10-16T14:04:21;25.10;99.90
17565;DHT22;62994;52.126;5.596;2022-10-16T14:06:50;24.70;99.90
17565;DHT22;62994;52.126;5.596;2022-10-16T14:09:22;24.30;99.90
17565;DHT22;62994;52.126;5.596;2022-10-16T14:11:51;23.80;99.90
17565;DHT22;62994;52.126;5.596;2022-10-16T14:14:21;23.40;99.90
17565;DHT22;62994;52.126;5.596;2022-10-16T14:16:49;23.00;99.90
17565;DHT22;62994;52.126;5.596;2022-10-16T14:19:20;22.70;99.90
17565;DHT22;62994;52.126;5.596;2022-10-16T14:21:49;22.50;99.90
17565;DHT22;62994;52.126;5.596;2022-10-16T14:24:25;22.40;99.90
17565;DHT22;62994;52.126;5.596;2022-10-16T14:26:53;22.30;99.90
17565;DHT22;62994;52.126;5.596;2022-10-16T14:29:24;22.20;99.90
17565;DHT22;62994;52.126;5.596;2022-10-16T14:31:55;22.00;99.90
17565;DHT22;62994;52.126;5.596;2022-10-16T14:34:28;21.90;99.90
17565;DHT22;62994;52.126;5.596;2022-10-16T14:36:56;21.70;99.90
17565;DHT22;62994;52.126;5.596;2022-10-16T14:39:26;21.70;99.90
17565;DHT22;62994;52.126;5.596;2022-10-16T14:41:56;21.50;99.90
17565;DHT22;62994;52.126;5.596;2022-10-16T14:44:29;21.50;99.90
17565;DHT22;62994;52.126;5.596;2022-10-16T14:46:57;21.40;99.90
17565;DHT22;62994;52.126;5.596;2022-10-16T14:49:26;21.20;99.90
17565;DHT22;62994;52.126;5.596;2022-10-16T14:51:53;21.20;99.90
17565;DHT22;62994;52.126;5.596;2022-10-16T14:54:20;21.20;99.90
17565;DHT22;62994;52.126;5.596;2022-10-16T14:56:49;21.10;99.90
17565;DHT22;62994;52.126;5.596;2022-10-16T14:59:26;21.10;99.90
17565;DHT22;62994;52.126;5.596;2022-10-16T15:01:56;21.10;99.90
17565;DHT22;62994;52.126;5.596;2022-10-16T15:04:22;20.90;99.90
17565;DHT22;62994;52.126;5.596;2022-10-16T15:06:49;20.80;99.90
17565;DHT22;62994;52.126;5.596;2022-10-16T15:09:16;20.80;99.90
17565;DHT22;62994;52.126;5.596;2022-10-16T15:11:43;20.70;99.90
17565;DHT22;62994;52.126;5.596;2022-10-16T15:14:12;20.70;99.90
17565;DHT22;62994;52.126;5.596;2022-10-16T15:16:39;20.70;99.90
17565;DHT22;62994;52.126;5.596;2022-10-16T15:19:07;20.70;99.90
17565;DHT22;62994;52.126;5.596;2022-10-16T15:21:34;20.70;99.90
17565;DHT22;62994;52.126;5.596;2022-10-16T15:24:01;20.60;99.90
17565;DHT22;62994;52.126;5.596;2022-10-16T15:26:29;20.50;99.90
17565;DHT22;62994;52.126;5.596;2022-10-16T15:28:56;20.50;99.90
17565;DHT22;62994;52.126;5.596;2022-10-16T15:31:23;20.40;99.90
17565;DHT22;62994;52.126;5.596;2022-10-16T15:33:51;20.30;99.90
17565;DHT22;62994;52.126;5.596;2022-10-16T15:36:27;20.20;99.90
17565;DHT22;62994;52.126;5.596;2022-10-16T15:38:54;20.10;99.90
17565;DHT22;62994;52.126;5.596;2022-10-16T15:41:21;20.10;99.90
17565;DHT22;62994;52.126;5.596;2022-10-16T15:43:49;20.00;99.90
17565;DHT22;62994;52.126;5.596;2022-10-16T15:46:18;19.90;99.90
17565;DHT22;62994;52.126;5.596;2022-10-16T15:48:46;19.90;99.90
17565;DHT22;62994;52.126;5.596;2022-10-16T15:51:13;19.80;99.90